createdAt,value
2018-11-06T00:02:09.248Z,91.30
2018-11-06T00:04:45.433Z,91.30
2018-11-06T00:07:16.761Z,91.50
2018-11-06T00:09:48.296Z,91.50
2018-11-06T00:12:19.429Z,91.70
2018-11-06T00:14:51.051Z,91.90
2018-11-06T00:17:22.451Z,91.50
2018-11-06T00:19:53.867Z,91.50
2018-11-06T00:22:25.160Z,91.60
2018-11-06T00:24:56.526Z,91.30
2018-11-06T00:27:28.160Z,91.70
2018-11-06T00:29:59.692Z,91.00
2018-11-06T00:32:30.870Z,91.20
2018-11-06T00:35:02.399Z,91.30
2018-11-06T00:37:33.840Z,91.30
2018-11-06T00:40:05.084Z,91.20
2018-11-06T00:42:36.570Z,91.50
2018-11-06T00:45:14.086Z,91.80
2018-11-06T00:47:45.697Z,91.60
2018-11-06T00:50:17.017Z,91.70
2018-11-06T00:52:48.666Z,91.80
2018-11-06T00:55:19.828Z,92.30
2018-11-06T00:57:51.341Z,92.50
2018-11-06T01:00:22.768Z,92.60
2018-11-06T01:02:54.212Z,92.70
2018-11-06T01:05:25.543Z,92.60
2018-11-06T01:07:57.003Z,92.50
2018-11-06T01:10:28.483Z,92.70
2018-11-06T01:12:59.650Z,92.60
2018-11-06T01:15:31.161Z,92.80
2018-11-06T01:18:02.846Z,92.70
2018-11-06T01:20:34.095Z,92.90
2018-11-06T01:23:05.469Z,92.80
2018-11-06T01:25:36.867Z,92.90
2018-11-06T01:28:08.355Z,92.60
2018-11-06T01:30:39.801Z,92.00
2018-11-06T01:33:11.095Z,92.10
2018-11-06T01:35:42.413Z,92.00
2018-11-06T01:38:13.929Z,92.90
2018-11-06T01:40:45.230Z,93.80
2018-11-06T01:43:16.601Z,93.80
2018-11-06T01:45:47.836Z,93.50
2018-11-06T01:48:19.246Z,93.30
2018-11-06T01:50:50.926Z,93.40
2018-11-06T01:53:22.434Z,93.20
2018-11-06T01:55:53.503Z,93.20
2018-11-06T01:58:24.659Z,93.30
2018-11-06T02:00:56.017Z,93.50
2018-11-06T02:03:27.576Z,93.60
2018-11-06T02:05:59.108Z,93.40
2018-11-06T02:08:30.268Z,93.70
2018-11-06T02:11:01.885Z,93.70
2018-11-06T02:13:33.070Z,93.70
2018-11-06T02:16:04.336Z,93.60
2018-11-06T02:18:35.430Z,93.60
2018-11-06T02:21:06.698Z,93.50
2018-11-06T02:23:38.060Z,93.30
2018-11-06T02:26:09.278Z,93.10
2018-11-06T02:28:40.576Z,93.20
2018-11-06T02:31:12.170Z,93.10
2018-11-06T02:33:43.466Z,93.00
2018-11-06T02:36:15.008Z,92.90
2018-11-06T02:38:46.532Z,93.10
2018-11-06T02:41:17.875Z,93.50
2018-11-06T02:43:48.985Z,93.40
2018-11-06T02:46:20.505Z,93.10
2018-11-06T02:48:52.121Z,93.20
2018-11-06T02:51:23.676Z,93.20
2018-11-06T02:53:54.909Z,93.60
2018-11-06T02:56:26.372Z,94.00
2018-11-06T02:58:57.719Z,93.80
2018-11-06T03:01:29.005Z,93.70
2018-11-06T03:04:00.212Z,93.40
2018-11-06T03:06:32.012Z,93.70
2018-11-06T03:09:03.262Z,94.00
2018-11-06T03:11:34.564Z,94.40
2018-11-06T03:14:06.256Z,94.60
2018-11-06T03:16:37.722Z,94.00
2018-11-06T03:19:09.175Z,93.90
2018-11-06T03:21:40.576Z,93.90
2018-11-06T03:24:11.975Z,93.90
2018-11-06T03:26:43.743Z,94.00
2018-11-06T03:29:15.112Z,94.00
2018-11-06T03:31:46.401Z,94.10
2018-11-06T03:34:17.840Z,94.30
2018-11-06T03:36:49.084Z,94.10
2018-11-06T03:39:20.464Z,94.00
2018-11-06T03:41:52.204Z,93.90
2018-11-06T03:44:23.324Z,93.80
2018-11-06T03:46:54.701Z,94.20
2018-11-06T03:49:25.918Z,94.40
2018-11-06T03:51:57.186Z,94.20
2018-11-06T03:54:28.513Z,94.20
2018-11-06T03:57:00.101Z,94.30
2018-11-06T03:59:31.427Z,94.20
2018-11-06T04:02:02.673Z,94.20
2018-11-06T04:04:34.216Z,94.40
2018-11-06T04:07:05.779Z,94.40
2018-11-06T04:09:37.133Z,94.20
2018-11-06T04:12:08.464Z,94.20
2018-11-06T04:14:39.903Z,94.30
2018-11-06T04:17:11.088Z,94.40
2018-11-06T04:19:42.708Z,94.20
2018-11-06T04:22:14.148Z,94.00
2018-11-06T04:24:45.436Z,94.40
2018-11-06T04:27:16.948Z,94.40
2018-11-06T04:29:48.180Z,94.30
2018-11-06T04:32:19.515Z,94.10
2018-11-06T04:34:50.604Z,94.10
2018-11-06T04:37:21.763Z,94.40
2018-11-06T04:39:53.372Z,94.50
2018-11-06T04:42:24.674Z,94.50
2018-11-06T04:44:56.167Z,94.30
2018-11-06T04:47:27.403Z,94.60
2018-11-06T04:49:58.705Z,94.70
2018-11-06T04:52:30.438Z,94.90
2018-11-06T04:55:01.682Z,95.10
2018-11-06T04:57:33.234Z,95.10
2018-11-06T05:00:04.814Z,95.10
2018-11-06T05:02:36.257Z,94.90
2018-11-06T05:05:08.500Z,95.40
2018-11-06T05:07:40.547Z,95.40
2018-11-06T05:10:14.300Z,95.20
2018-11-06T05:12:45.841Z,95.40
2018-11-06T05:15:17.195Z,95.20
2018-11-06T05:17:48.668Z,95.00
2018-11-06T05:20:19.879Z,95.00
2018-11-06T05:22:51.425Z,95.30
2018-11-06T05:25:22.730Z,94.90
2018-11-06T05:27:54.446Z,95.10
2018-11-06T05:30:25.948Z,95.00
2018-11-06T05:32:57.427Z,94.90
2018-11-06T05:35:28.795Z,94.70
2018-11-06T05:38:00.233Z,94.60
2018-11-06T05:40:47.552Z,94.50
2018-11-06T05:43:18.729Z,94.90
2018-11-06T05:45:50.433Z,94.90
2018-11-06T05:48:21.880Z,94.90
2018-11-06T05:50:53.314Z,94.90
2018-11-06T05:53:24.803Z,94.80
2018-11-06T05:55:56.281Z,94.70
2018-11-06T05:58:27.612Z,94.80
2018-11-06T06:00:59.167Z,94.70
2018-11-06T06:03:30.447Z,94.60
2018-11-06T06:06:01.965Z,94.60
2018-11-06T06:08:33.535Z,94.90
2018-11-06T06:11:04.743Z,94.80
2018-11-06T06:13:36.049Z,94.70
2018-11-06T06:16:07.395Z,94.20
2018-11-06T06:18:38.893Z,94.00
2018-11-06T06:21:10.342Z,94.00
2018-11-06T06:23:41.816Z,93.60
2018-11-06T06:26:13.367Z,93.20
2018-11-06T06:28:44.986Z,93.20
2018-11-06T06:31:16.572Z,92.40
2018-11-06T06:33:48.057Z,92.10
2018-11-06T06:36:19.437Z,92.30
2018-11-06T06:38:50.968Z,92.30
2018-11-06T06:41:22.269Z,91.50
2018-11-06T06:43:53.638Z,91.20
2018-11-06T06:46:25.299Z,91.80
2018-11-06T06:48:56.628Z,91.40
2018-11-06T06:51:28.171Z,92.70
2018-11-06T06:54:00.164Z,90.70
2018-11-06T06:56:31.540Z,90.20
2018-11-06T06:59:03.157Z,89.40
2018-11-06T07:01:34.613Z,89.60
2018-11-06T07:04:06.083Z,89.60
2018-11-06T07:06:37.660Z,87.70
2018-11-06T07:09:11.059Z,85.30
2018-11-06T07:11:42.407Z,87.10
2018-11-06T07:14:13.717Z,87.60
2018-11-06T07:16:45.336Z,88.80
2018-11-06T07:19:16.705Z,89.50
2018-11-06T07:21:47.867Z,89.60
2018-11-06T07:24:19.207Z,89.90
2018-11-06T07:26:50.889Z,90.70
2018-11-06T07:29:23.122Z,90.50
2018-11-06T07:31:54.600Z,90.10
2018-11-06T07:34:26.008Z,89.30
2018-11-06T07:36:57.878Z,88.70
2018-11-06T07:39:29.464Z,89.40
2018-11-06T07:42:01.102Z,88.10
2018-11-06T07:44:32.098Z,89.00
2018-11-06T07:47:03.577Z,88.70
2018-11-06T07:49:35.221Z,87.80
2018-11-06T07:52:06.996Z,87.30
2018-11-06T07:54:39.081Z,85.90
2018-11-06T07:57:10.485Z,83.80
2018-11-06T07:59:41.962Z,83.50
2018-11-06T08:02:13.244Z,81.70
2018-11-06T08:04:44.572Z,81.60
2018-11-06T08:07:16.146Z,81.30
2018-11-06T08:09:48.231Z,80.40
2018-11-06T08:12:19.769Z,79.30
2018-11-06T08:14:51.143Z,77.50
2018-11-06T08:17:23.097Z,75.90
2018-11-06T08:19:54.271Z,76.40
2018-11-06T08:22:25.641Z,76.70
2018-11-06T08:24:56.937Z,77.40
2018-11-06T08:27:28.178Z,74.90
2018-11-06T08:29:59.437Z,72.50
2018-11-06T08:32:31.716Z,71.00
2018-11-06T08:35:02.352Z,73.10
2018-11-06T08:37:33.778Z,73.60
2018-11-06T08:40:05.189Z,73.50
2018-11-06T08:42:36.896Z,72.20
2018-11-06T08:45:09.933Z,72.90
2018-11-06T08:47:42.249Z,73.40
2018-11-06T08:50:16.071Z,72.80
2018-11-06T08:52:47.612Z,73.30
2018-11-06T08:55:18.909Z,74.60
2018-11-06T08:57:50.336Z,75.60
2018-11-06T09:00:21.810Z,74.40
2018-11-06T09:02:53.067Z,73.50
2018-11-06T09:05:25.469Z,72.90
2018-11-06T09:07:57.334Z,73.40
2018-11-06T09:10:28.734Z,73.30
2018-11-06T09:13:00.103Z,74.10
2018-11-06T09:15:31.581Z,74.40
2018-11-06T09:18:03.108Z,74.00
2018-11-06T09:20:34.537Z,73.70
2018-11-06T09:23:06.030Z,73.50
2018-11-06T09:25:37.564Z,73.00
2018-11-06T09:28:09.401Z,72.30
2018-11-06T09:30:40.833Z,72.90
2018-11-06T09:33:12.185Z,72.30
2018-11-06T09:35:43.567Z,70.50
2018-11-06T09:38:14.944Z,69.30
2018-11-06T09:40:46.261Z,70.60
2018-11-06T09:43:17.693Z,70.30
2018-11-06T09:45:49.153Z,69.60
2018-11-06T09:48:20.694Z,69.50
2018-11-06T09:50:52.116Z,67.40
2018-11-06T09:53:23.786Z,67.20
2018-11-06T09:55:55.191Z,66.90
2018-11-06T09:58:26.744Z,67.20
2018-11-06T10:00:58.052Z,66.60
2018-11-06T10:03:29.613Z,65.80
2018-11-06T10:06:01.038Z,65.60
2018-11-06T10:08:32.317Z,65.30
2018-11-06T10:11:03.689Z,64.80
2018-11-06T10:13:34.768Z,65.30
2018-11-06T10:16:06.243Z,65.00
2018-11-06T10:18:37.607Z,65.60
2018-11-06T10:21:09.225Z,64.60
2018-11-06T10:23:40.406Z,64.20
2018-11-06T10:26:11.679Z,63.50
2018-11-06T10:28:43.029Z,64.10
2018-11-06T10:31:14.822Z,65.60
2018-11-06T10:33:46.143Z,65.70
2018-11-06T10:36:17.588Z,66.00
2018-11-06T10:38:49.283Z,65.40
2018-11-06T10:41:20.636Z,64.90
2018-11-06T10:43:52.160Z,65.40
2018-11-06T10:46:23.693Z,64.80
2018-11-06T10:48:55.243Z,65.90
2018-11-06T10:51:26.977Z,65.10
2018-11-06T10:53:58.393Z,65.10
2018-11-06T10:56:30.052Z,65.00
2018-11-06T10:59:01.714Z,66.10
2018-11-06T11:01:38.216Z,65.40
2018-11-06T11:04:16.731Z,64.50
2018-11-06T11:06:48.611Z,64.40
2018-11-06T11:09:20.109Z,65.00
2018-11-06T11:11:51.541Z,64.50
2018-11-06T11:14:22.987Z,64.50
2018-11-06T11:16:54.139Z,65.50
2018-11-06T11:19:25.594Z,65.50
2018-11-06T11:21:57.112Z,64.50
2018-11-06T11:24:28.671Z,63.50
2018-11-06T11:26:59.849Z,63.40
2018-11-06T11:29:31.335Z,64.20
2018-11-06T11:32:02.893Z,64.00
2018-11-06T11:34:34.273Z,64.10
2018-11-06T11:37:05.507Z,64.60
2018-11-06T11:39:37.004Z,64.10
2018-11-06T11:42:08.954Z,64.50
2018-11-06T11:44:40.345Z,64.00
2018-11-06T11:47:11.893Z,64.60
2018-11-06T11:49:43.475Z,64.80
2018-11-06T11:52:14.893Z,64.90
2018-11-06T11:54:46.683Z,64.70
2018-11-06T11:57:18.070Z,64.60
2018-11-06T11:59:49.633Z,64.20
2018-11-06T12:02:21.233Z,64.80
2018-11-06T12:04:52.493Z,65.40
2018-11-06T12:07:24.116Z,64.90
2018-11-06T12:09:55.670Z,64.60
2018-11-06T12:12:27.221Z,64.10
2018-11-06T12:14:58.844Z,64.40
2018-11-06T12:17:30.530Z,64.50
2018-11-06T12:20:01.860Z,64.60
2018-11-06T12:22:33.257Z,64.80
2018-11-06T12:25:05.080Z,64.60
2018-11-06T12:27:36.406Z,64.50
2018-11-06T12:30:09.991Z,64.80
2018-11-06T12:32:41.661Z,65.40
2018-11-06T12:35:13.716Z,64.40
2018-11-06T12:37:45.266Z,63.60
2018-11-06T12:40:16.618Z,64.20
2018-11-06T12:42:48.196Z,64.10
2018-11-06T12:45:19.838Z,63.50
2018-11-06T12:47:51.730Z,63.50
2018-11-06T12:50:23.166Z,62.60
2018-11-06T12:52:54.607Z,62.90
2018-11-06T12:55:26.116Z,62.90
2018-11-06T12:57:57.635Z,62.90
2018-11-06T13:00:28.899Z,62.70
2018-11-06T13:03:00.430Z,62.00
2018-11-06T13:05:31.725Z,61.60
2018-11-06T13:08:03.161Z,61.80
2018-11-06T13:10:34.498Z,61.40
2018-11-06T13:13:06.099Z,61.10
2018-11-06T13:15:37.411Z,60.70
2018-11-06T13:18:08.800Z,61.20
2018-11-06T13:20:40.361Z,60.60
2018-11-06T13:23:11.806Z,60.30
2018-11-06T13:25:43.465Z,60.60
2018-11-06T13:28:14.919Z,60.90
2018-11-06T13:30:46.337Z,61.00
2018-11-06T13:33:17.823Z,61.10
2018-11-06T13:35:49.552Z,60.50
2018-11-06T13:38:21.153Z,60.60
2018-11-06T13:40:52.577Z,61.60
2018-11-06T13:43:23.970Z,61.40
2018-11-06T13:45:55.650Z,61.00
2018-11-06T13:48:26.939Z,61.40
2018-11-06T13:50:58.464Z,62.10
2018-11-06T13:53:29.663Z,61.80
2018-11-06T13:56:00.956Z,61.90
2018-11-06T13:58:32.417Z,62.00
2018-11-06T14:01:04.008Z,62.40
2018-11-06T14:03:35.688Z,62.40
2018-11-06T14:06:07.386Z,62.30
2018-11-06T14:08:38.895Z,62.60
2018-11-06T14:11:10.321Z,61.80
2018-11-06T14:13:41.673Z,62.20
2018-11-06T14:16:13.012Z,62.70
2018-11-06T14:18:44.743Z,62.50
2018-11-06T14:21:16.471Z,62.60
2018-11-06T14:23:47.678Z,62.70
2018-11-06T14:26:19.288Z,62.50
2018-11-06T14:28:50.756Z,63.10
2018-11-06T14:31:22.057Z,63.00
2018-11-06T14:33:53.616Z,63.40
2018-11-06T14:36:24.943Z,63.50
2018-11-06T14:38:56.398Z,64.10
2018-11-06T14:41:28.129Z,64.20
2018-11-06T14:43:59.566Z,64.10
2018-11-06T14:46:31.314Z,64.30
2018-11-06T14:49:02.983Z,64.90
2018-11-06T14:51:34.205Z,64.80
2018-11-06T14:54:05.652Z,65.50
2018-11-06T14:56:37.424Z,65.60
2018-11-06T14:59:09.003Z,65.80
2018-11-06T15:01:40.348Z,66.30
2018-11-06T15:04:11.840Z,66.20
2018-11-06T15:06:43.054Z,66.50
2018-11-06T15:09:14.791Z,66.90
2018-11-06T15:11:46.139Z,66.90
2018-11-06T15:14:17.298Z,67.00
2018-11-06T15:16:48.828Z,67.00
2018-11-06T15:19:20.329Z,67.20
2018-11-06T15:21:52.479Z,67.00
2018-11-06T15:24:24.128Z,67.00
2018-11-06T15:26:55.356Z,68.00
2018-11-06T15:29:27.889Z,68.20
2018-11-06T15:31:59.591Z,68.50
2018-11-06T15:34:30.861Z,68.90
2018-11-06T15:37:02.182Z,69.10
2018-11-06T15:39:33.877Z,69.20
2018-11-06T15:42:05.650Z,69.40
2018-11-06T15:44:37.196Z,69.90
2018-11-06T15:47:08.816Z,70.20
2018-11-06T15:49:40.374Z,70.60
2018-11-06T15:52:11.813Z,70.90
2018-11-06T15:54:43.324Z,71.30
2018-11-06T15:57:14.724Z,71.50
2018-11-06T15:59:46.124Z,71.80
2018-11-06T16:02:17.477Z,72.50
2018-11-06T16:04:48.842Z,73.30
2018-11-06T16:07:20.780Z,73.80
2018-11-06T16:09:52.457Z,74.10
2018-11-06T16:12:23.875Z,74.10
2018-11-06T16:14:55.380Z,73.90
2018-11-06T16:17:27.567Z,74.10
2018-11-06T16:19:59.124Z,74.20
2018-11-06T16:22:31.063Z,74.50
2018-11-06T16:25:02.952Z,74.60
2018-11-06T16:27:34.497Z,74.80
2018-11-06T16:30:08.768Z,75.20
2018-11-06T16:32:41.109Z,75.40
2018-11-06T16:35:13.962Z,75.50
2018-11-06T16:37:46.205Z,76.00
2018-11-06T16:40:18.305Z,76.60
2018-11-06T16:42:50.814Z,76.30
2018-11-06T16:45:23.452Z,76.60
2018-11-06T16:47:55.148Z,76.80
2018-11-06T16:50:26.747Z,77.30
2018-11-06T16:52:58.086Z,77.20
2018-11-06T16:55:29.522Z,77.30
2018-11-06T16:58:01.031Z,77.50
2018-11-06T17:00:32.565Z,77.90
2018-11-06T17:03:04.197Z,77.90
2018-11-06T17:05:35.635Z,78.20
2018-11-06T17:08:07.702Z,78.20
2018-11-06T17:10:39.206Z,78.10
2018-11-06T17:13:10.561Z,78.40
2018-11-06T17:15:42.833Z,78.70
2018-11-06T17:18:14.569Z,79.00
2018-11-06T17:20:47.375Z,79.10
2018-11-06T17:23:19.282Z,79.30
2018-11-06T17:25:51.676Z,79.30
2018-11-06T17:28:23.249Z,79.10
2018-11-06T17:30:55.192Z,79.10
2018-11-06T17:33:27.152Z,79.10
2018-11-06T17:35:58.947Z,79.30
2018-11-06T17:38:30.853Z,79.40
2018-11-06T17:41:02.610Z,79.50
2018-11-06T17:43:34.389Z,79.90
2018-11-06T17:46:06.390Z,80.10
2018-11-06T17:48:38.496Z,80.00
2018-11-06T17:51:09.992Z,79.90
2018-11-06T17:53:41.706Z,79.80
2018-11-06T17:56:13.648Z,79.80
2018-11-06T17:58:45.278Z,80.10
2018-11-06T18:01:16.821Z,80.20
2018-11-06T18:03:48.570Z,80.10
2018-11-06T18:06:20.313Z,80.30
2018-11-06T18:08:52.218Z,80.60
2018-11-06T18:11:24.926Z,81.20
2018-11-06T18:13:56.817Z,81.40
2018-11-06T18:16:28.219Z,81.40
2018-11-06T18:19:00.433Z,80.90
2018-11-06T18:21:32.009Z,80.90
2018-11-06T18:24:03.712Z,80.90
2018-11-06T18:26:36.450Z,81.00
2018-11-06T18:29:08.391Z,81.20
2018-11-06T18:31:40.462Z,83.60
2018-11-06T18:34:12.877Z,84.60
2018-11-06T18:36:44.529Z,84.80
2018-11-06T18:39:16.343Z,82.80
2018-11-06T18:41:48.235Z,83.40
2018-11-06T18:44:20.353Z,81.70
2018-11-06T18:46:52.018Z,82.40
2018-11-06T18:49:23.619Z,81.40
2018-11-06T18:51:55.545Z,82.00
2018-11-06T18:54:27.863Z,81.80
2018-11-06T18:56:59.569Z,82.00
2018-11-06T18:59:31.368Z,82.30
2018-11-06T19:02:02.899Z,81.80
2018-11-06T19:04:34.431Z,81.80
2018-11-06T19:07:06.256Z,82.10
2018-11-06T19:09:38.502Z,81.60
2018-11-06T19:12:10.579Z,81.80
2018-11-06T19:14:42.712Z,81.60
2018-11-06T19:17:14.453Z,82.50
2018-11-06T19:19:46.131Z,82.10
2018-11-06T19:22:17.700Z,82.70
2018-11-06T19:24:49.689Z,81.70
2018-11-06T19:27:21.223Z,82.00
2018-11-06T19:29:52.982Z,82.30
2018-11-06T19:32:24.619Z,82.60
2018-11-06T19:34:56.485Z,82.80
2018-11-06T19:37:28.199Z,82.60
2018-11-06T19:40:00.313Z,82.50
2018-11-06T19:42:33.135Z,82.50
2018-11-06T19:45:04.803Z,83.20
2018-11-06T19:47:36.782Z,83.00
2018-11-06T19:50:10.289Z,82.50
2018-11-06T19:52:42.896Z,82.80
2018-11-06T19:55:15.770Z,82.60
2018-11-06T19:57:47.433Z,82.40
2018-11-06T20:00:21.706Z,82.80
2018-11-06T20:02:54.499Z,83.00
2018-11-06T20:05:26.256Z,83.60
2018-11-06T20:07:57.940Z,83.90
2018-11-06T20:10:29.682Z,83.80
2018-11-06T20:13:01.505Z,83.50
2018-11-06T20:15:33.820Z,83.30
2018-11-06T20:18:05.709Z,84.80
2018-11-06T20:20:37.183Z,87.70
2018-11-06T20:23:08.790Z,85.10
2018-11-06T20:25:40.203Z,84.60
2018-11-06T20:28:11.892Z,85.00
2018-11-06T20:30:43.606Z,84.30
2018-11-06T20:33:15.356Z,83.90
2018-11-06T20:35:47.054Z,83.80
2018-11-06T20:38:19.231Z,83.90
2018-11-06T20:40:51.105Z,83.90
2018-11-06T20:43:22.756Z,85.30
2018-11-06T20:45:54.444Z,86.50
2018-11-06T20:48:26.617Z,85.70
2018-11-06T20:50:58.520Z,85.30
2018-11-06T20:53:30.263Z,85.20
2018-11-06T20:56:03.730Z,84.30
2018-11-06T20:58:36.538Z,83.50
2018-11-06T21:01:12.360Z,82.80
2018-11-06T21:03:45.632Z,83.70
2018-11-06T21:06:20.361Z,83.70
2018-11-06T21:08:52.598Z,84.10
2018-11-06T21:11:24.521Z,84.10
2018-11-06T21:13:56.469Z,84.40
2018-11-06T21:16:28.925Z,84.40
2018-11-06T21:19:00.534Z,84.90
2018-11-06T21:21:32.080Z,84.50
2018-11-06T21:24:04.743Z,84.50
2018-11-06T21:26:36.326Z,84.80
2018-11-06T21:29:08.822Z,84.90
2018-11-06T21:31:40.323Z,85.00
2018-11-06T21:34:11.995Z,84.90
2018-11-06T21:36:43.762Z,84.90
2018-11-06T21:39:15.515Z,84.80
2018-11-06T21:41:46.934Z,85.20
2018-11-06T21:44:18.502Z,85.00
2018-11-06T21:46:50.049Z,85.70
2018-11-06T21:49:22.184Z,84.90
2018-11-06T21:51:53.471Z,85.10
2018-11-06T21:54:25.348Z,85.20
2018-11-06T21:56:56.727Z,85.30
2018-11-06T21:59:28.324Z,85.20
2018-11-06T22:01:59.818Z,85.40
2018-11-06T22:04:30.978Z,85.10
2018-11-06T22:07:02.512Z,85.40
2018-11-06T22:09:34.703Z,85.90
2018-11-06T22:12:06.683Z,85.50
2018-11-06T22:14:37.977Z,85.60
2018-11-06T22:17:09.547Z,85.30
2018-11-06T22:19:41.001Z,85.40
2018-11-06T22:22:12.813Z,85.10
2018-11-06T22:24:44.300Z,85.10
2018-11-06T22:27:15.851Z,84.90
2018-11-06T22:29:47.298Z,85.00
2018-11-06T22:32:19.451Z,85.90
2018-11-06T22:34:50.813Z,84.90
2018-11-06T22:37:22.357Z,84.80
2018-11-06T22:39:54.184Z,84.60
2018-11-06T22:42:25.760Z,84.70
2018-11-06T22:44:57.655Z,84.50
2018-11-06T22:47:29.328Z,84.60
2018-11-06T22:50:00.675Z,84.20
2018-11-06T22:52:32.293Z,84.10
2018-11-06T22:55:03.823Z,84.20
2018-11-06T22:57:35.152Z,84.50
2018-11-06T23:00:10.864Z,84.90
2018-11-06T23:02:43.134Z,84.80
2018-11-06T23:05:14.954Z,84.20
2018-11-06T23:07:51.416Z,84.30
2018-11-06T23:10:23.136Z,83.80
2018-11-06T23:12:54.980Z,84.00
2018-11-06T23:15:26.386Z,84.00
2018-11-06T23:17:57.858Z,84.40
2018-11-06T23:20:29.327Z,84.70
2018-11-06T23:23:00.872Z,84.80
2018-11-06T23:25:32.589Z,84.60
2018-11-06T23:28:04.101Z,84.60
2018-11-06T23:30:35.733Z,84.50
2018-11-06T23:33:07.494Z,84.70
2018-11-06T23:35:39.259Z,84.90
2018-11-06T23:38:10.829Z,84.60
2018-11-06T23:40:42.554Z,84.70
2018-11-06T23:43:14.351Z,85.00
2018-11-06T23:45:46.013Z,85.60
2018-11-06T23:48:17.649Z,85.70
2018-11-06T23:50:48.816Z,85.50
2018-11-06T23:53:20.241Z,85.60
2018-11-06T23:55:51.897Z,85.50
2018-11-06T23:58:23.497Z,85.20
